sensor_id;sensor_type;location;lat;lon;timestamp;temperature;humidity
25688;DHT22;17407;51.120;3.702;2023-12-20T00:00:36;8.20;99.90
25688;DHT22;17407;51.120;3.702;2023-12-20T00:03:03;8.20;99.90
25688;DHT22;17407;51.120;3.702;2023-12-20T00:05:29;8.20;99.90
25688;DHT22;17407;51.120;3.702;2023-12-20T00:07:57;8.20;99.90
25688;DHT22;17407;51.120;3.702;2023-12-20T00:10:23;8.20;99.90
25688;DHT22;17407;51.120;3.702;2023-12-20T00:12:49;8.10;99.90
25688;DHT22;17407;51.120;3.702;2023-12-20T00:15:14;8.10;99.90
25688;DHT22;17407;51.120;3.702;2023-12-20T00:17:40;8.10;99.90
25688;DHT22;17407;51.120;3.702;2023-12-20T00:20:06;8.10;99.90
25688;DHT22;17407;51.120;3.702;2023-12-20T00:22:32;8.10;99.90
25688;DHT22;17407;51.120;3.702;2023-12-20T00:24:58;8.00;99.90
25688;DHT22;17407;51.120;3.702;2023-12-20T00:27:23;8.00;99.90
25688;DHT22;17407;51.120;3.702;2023-12-20T00:29:49;8.00;99.90
25688;DHT22;17407;51.120;3.702;2023-12-20T00:32:16;8.00;99.90
25688;DHT22;17407;51.120;3.702;2023-12-20T00:34:42;7.90;99.90
25688;DHT22;17407;51.120;3.702;2023-12-20T00:37:08;8.00;99.90
25688;DHT22;17407;51.120;3.702;2023-12-20T00:39:34;8.00;99.90
25688;DHT22;17407;51.120;3.702;2023-12-20T00:41:59;8.00;99.90
25688;DHT22;17407;51.120;3.702;2023-12-20T00:44:25;7.90;99.90
25688;DHT22;17407;51.120;3.702;2023-12-20T00:46:51;7.90;99.90
25688;DHT22;17407;51.120;3.702;2023-12-20T00:49:17;8.00;99.90
25688;DHT22;17407;51.120;3.702;2023-12-20T00:51:43;7.90;99.90
25688;DHT22;17407;51.120;3.702;2023-12-20T00:54:09;7.90;99.90
25688;DHT22;17407;51.120;3.702;2023-12-20T00:56:35;7.90;99.90
25688;DHT22;17407;51.120;3.702;2023-12-20T00:59:00;7.90;99.90
25688;DHT22;17407;51.120;3.702;2023-12-20T01:01:26;7.90;99.90
25688;DHT22;17407;51.120;3.702;2023-12-20T01:03:52;7.90;99.90
25688;DHT22;17407;51.120;3.702;2023-12-20T01:06:18;7.90;99.90
25688;DHT22;17407;51.120;3.702;2023-12-20T01:08:44;7.90;99.90
25688;DHT22;17407;51.120;3.702;2023-12-20T01:11:10;7.90;99.90
25688;DHT22;17407;51.120;3.702;2023-12-20T01:13:35;7.90;99.90
25688;DHT22;17407;51.120;3.702;2023-12-20T01:16:01;7.90;99.90
25688;DHT22;17407;51.120;3.702;2023-12-20T01:18:27;7.90;99.90
25688;DHT22;17407;51.120;3.702;2023-12-20T01:20:53;7.90;99.90
25688;DHT22;17407;51.120;3.702;2023-12-20T01:23:19;7.90;99.90
25688;DHT22;17407;51.120;3.702;2023-12-20T01:25:44;7.90;99.90
25688;DHT22;17407;51.120;3.702;2023-12-20T01:28:10;7.90;99.90
25688;DHT22;17407;51.120;3.702;2023-12-20T01:30:36;7.90;99.90
25688;DHT22;17407;51.120;3.702;2023-12-20T01:33:01;7.90;99.90
25688;DHT22;17407;51.120;3.702;2023-12-20T01:35:27;7.90;99.90
25688;DHT22;17407;51.120;3.702;2023-12-20T01:37:53;7.90;99.90
25688;DHT22;17407;51.120;3.702;2023-12-20T01:40:22;7.90;99.90
25688;DHT22;17407;51.120;3.702;2023-12-20T01:42:57;7.90;99.90
25688;DHT22;17407;51.120;3.702;2023-12-20T01:45:23;7.90;99.90
25688;DHT22;17407;51.120;3.702;2023-12-20T01:47:48;7.90;99.90
25688;DHT22;17407;51.120;3.702;2023-12-20T01:50:14;7.90;99.90
25688;DHT22;17407;51.120;3.702;2023-12-20T01:52:42;7.90;99.90
25688;DHT22;17407;51.120;3.702;2023-12-20T01:55:08;7.90;99.90
25688;DHT22;17407;51.120;3.702;2023-12-20T01:57:39;7.90;99.90
25688;DHT22;17407;51.120;3.702;2023-12-20T02:00:06;7.90;99.90
25688;DHT22;17407;51.120;3.702;2023-12-20T02:02:33;7.90;99.90
25688;DHT22;17407;51.120;3.702;2023-12-20T02:05:00;7.90;99.90
25688;DHT22;17407;51.120;3.702;2023-12-20T02:07:25;7.90;99.90
25688;DHT22;17407;51.120;3.702;2023-12-20T02:09:52;7.90;99.90
25688;DHT22;17407;51.120;3.702;2023-12-20T02:12:18;8.00;99.90
25688;DHT22;17407;51.120;3.702;2023-12-20T02:14:44;8.00;99.90
25688;DHT22;17407;51.120;3.702;2023-12-20T02:17:10;7.90;99.90
25688;DHT22;17407;51.120;3.702;2023-12-20T02:19:35;8.00;99.90
25688;DHT22;17407;51.120;3.702;2023-12-20T02:22:19;7.90;99.90
25688;DHT22;17407;51.120;3.702;2023-12-20T02:24:44;8.00;99.90
25688;DHT22;17407;51.120;3.702;2023-12-20T02:27:10;8.00;99.90
25688;DHT22;17407;51.120;3.702;2023-12-20T02:29:36;8.10;99.90
25688;DHT22;17407;51.120;3.702;2023-12-20T02:32:02;8.00;99.90
25688;DHT22;17407;51.120;3.702;2023-12-20T02:34:28;8.00;99.90
25688;DHT22;17407;51.120;3.702;2023-12-20T02:36:54;8.10;99.90
25688;DHT22;17407;51.120;3.702;2023-12-20T02:39:20;8.10;99.90
25688;DHT22;17407;51.120;3.702;2023-12-20T02:41:46;8.10;99.90
25688;DHT22;17407;51.120;3.702;2023-12-20T02:44:12;8.10;99.90
25688;DHT22;17407;51.120;3.702;2023-12-20T02:46:37;8.10;99.90
25688;DHT22;17407;51.120;3.702;2023-12-20T02:49:03;8.10;99.90
25688;DHT22;17407;51.120;3.702;2023-12-20T02:51:28;8.20;99.90
25688;DHT22;17407;51.120;3.702;2023-12-20T02:53:54;8.20;99.90
25688;DHT22;17407;51.120;3.702;2023-12-20T02:56:20;8.20;99.90
25688;DHT22;17407;51.120;3.702;2023-12-20T02:58:45;8.20;99.90
25688;DHT22;17407;51.120;3.702;2023-12-20T03:01:11;8.30;99.90
25688;DHT22;17407;51.120;3.702;2023-12-20T03:03:36;8.50;99.90
25688;DHT22;17407;51.120;3.702;2023-12-20T03:06:02;8.30;99.90
25688;DHT22;17407;51.120;3.702;2023-12-20T03:08:28;8.30;99.90
25688;DHT22;17407;51.120;3.702;2023-12-20T03:10:53;8.30;99.90
25688;DHT22;17407;51.120;3.702;2023-12-20T03:13:19;8.30;99.90
25688;DHT22;17407;51.120;3.702;2023-12-20T03:15:45;8.30;99.90
25688;DHT22;17407;51.120;3.702;2023-12-20T03:18:11;8.30;99.90
25688;DHT22;17407;51.120;3.702;2023-12-20T03:20:37;8.30;99.90
25688;DHT22;17407;51.120;3.702;2023-12-20T03:23:03;8.30;99.90
25688;DHT22;17407;51.120;3.702;2023-12-20T03:25:29;8.30;99.90
25688;DHT22;17407;51.120;3.702;2023-12-20T03:27:54;8.30;99.90
25688;DHT22;17407;51.120;3.702;2023-12-20T03:30:20;8.30;99.90
25688;DHT22;17407;51.120;3.702;2023-12-20T03:32:47;8.30;99.90
25688;DHT22;17407;51.120;3.702;2023-12-20T03:35:12;8.30;99.90
25688;DHT22;17407;51.120;3.702;2023-12-20T03:37:38;8.30;99.90
25688;DHT22;17407;51.120;3.702;2023-12-20T03:40:04;8.30;99.90
25688;DHT22;17407;51.120;3.702;2023-12-20T03:42:30;8.30;99.90
25688;DHT22;17407;51.120;3.702;2023-12-20T03:44:56;8.30;99.90
25688;DHT22;17407;51.120;3.702;2023-12-20T03:47:22;8.40;99.90
25688;DHT22;17407;51.120;3.702;2023-12-20T03:49:47;8.40;99.90
25688;DHT22;17407;51.120;3.702;2023-12-20T03:52:13;8.40;99.90
25688;DHT22;17407;51.120;3.702;2023-12-20T03:54:39;8.40;99.90
25688;DHT22;17407;51.120;3.702;2023-12-20T03:57:05;8.40;99.90
25688;DHT22;17407;51.120;3.702;2023-12-20T03:59:35;8.40;99.90
25688;DHT22;17407;51.120;3.702;2023-12-20T04:02:01;8.40;99.90
25688;DHT22;17407;51.120;3.702;2023-12-20T04:04:27;8.40;99.90
25688;DHT22;17407;51.120;3.702;2023-12-20T04:06:53;8.50;99.90
25688;DHT22;17407;51.120;3.702;2023-12-20T04:09:19;8.50;99.90
25688;DHT22;17407;51.120;3.702;2023-12-20T04:11:44;8.50;99.90
25688;DHT22;17407;51.120;3.702;2023-12-20T04:14:10;8.50;99.90
25688;DHT22;17407;51.120;3.702;2023-12-20T04:16:35;8.50;99.90
25688;DHT22;17407;51.120;3.702;2023-12-20T04:19:01;8.50;99.90
25688;DHT22;17407;51.120;3.702;2023-12-20T04:21:27;8.50;99.90
25688;DHT22;17407;51.120;3.702;2023-12-20T04:23:53;8.50;99.90
25688;DHT22;17407;51.120;3.702;2023-12-20T04:26:19;8.50;99.90
25688;DHT22;17407;51.120;3.702;2023-12-20T04:28:44;8.50;99.90
25688;DHT22;17407;51.120;3.702;2023-12-20T04:31:10;8.50;99.90
25688;DHT22;17407;51.120;3.702;2023-12-20T04:33:35;8.50;99.90
25688;DHT22;17407;51.120;3.702;2023-12-20T04:36:01;8.50;99.90
25688;DHT22;17407;51.120;3.702;2023-12-20T04:38:27;8.40;99.90
25688;DHT22;17407;51.120;3.702;2023-12-20T04:40:52;8.40;99.90
25688;DHT22;17407;51.120;3.702;2023-12-20T04:43:18;8.40;99.90
25688;DHT22;17407;51.120;3.702;2023-12-20T04:45:43;8.40;99.90
25688;DHT22;17407;51.120;3.702;2023-12-20T04:48:09;8.40;99.90
25688;DHT22;17407;51.120;3.702;2023-12-20T04:50:35;8.40;99.90
25688;DHT22;17407;51.120;3.702;2023-12-20T04:53:00;8.30;99.90
25688;DHT22;17407;51.120;3.702;2023-12-20T04:55:26;8.30;99.90
25688;DHT22;17407;51.120;3.702;2023-12-20T04:57:52;8.20;99.90
25688;DHT22;17407;51.120;3.702;2023-12-20T05:00:17;8.20;99.90
25688;DHT22;17407;51.120;3.702;2023-12-20T05:02:43;8.20;99.90
25688;DHT22;17407;51.120;3.702;2023-12-20T05:05:09;8.10;99.90
25688;DHT22;17407;51.120;3.702;2023-12-20T05:07:35;8.10;99.90
25688;DHT22;17407;51.120;3.702;2023-12-20T05:10:00;8.10;99.90
25688;DHT22;17407;51.120;3.702;2023-12-20T05:12:26;8.10;99.90
25688;DHT22;17407;51.120;3.702;2023-12-20T05:14:52;8.10;99.90
25688;DHT22;17407;51.120;3.702;2023-12-20T05:17:18;8.10;99.90
25688;DHT22;17407;51.120;3.702;2023-12-20T05:19:45;8.10;99.90
25688;DHT22;17407;51.120;3.702;2023-12-20T05:22:11;8.00;99.90
25688;DHT22;17407;51.120;3.702;2023-12-20T05:24:37;7.90;99.90
25688;DHT22;17407;51.120;3.702;2023-12-20T05:27:03;7.90;99.90
25688;DHT22;17407;51.120;3.702;2023-12-20T05:29:28;7.90;99.90
25688;DHT22;17407;51.120;3.702;2023-12-20T05:31:54;7.90;99.90
25688;DHT22;17407;51.120;3.702;2023-12-20T05:34:20;7.90;99.90
25688;DHT22;17407;51.120;3.702;2023-12-20T05:36:46;7.90;99.90
25688;DHT22;17407;51.120;3.702;2023-12-20T05:39:11;7.90;99.90
25688;DHT22;17407;51.120;3.702;2023-12-20T05:41:37;7.90;99.90
25688;DHT22;17407;51.120;3.702;2023-12-20T05:44:03;7.90;99.90
25688;DHT22;17407;51.120;3.702;2023-12-20T05:46:28;8.00;99.90
25688;DHT22;17407;51.120;3.702;2023-12-20T05:48:54;8.00;99.90
25688;DHT22;17407;51.120;3.702;2023-12-20T05:51:20;7.90;99.90
25688;DHT22;17407;51.120;3.702;2023-12-20T05:53:45;7.90;99.90
25688;DHT22;17407;51.120;3.702;2023-12-20T05:56:11;7.90;99.90
25688;DHT22;17407;51.120;3.702;2023-12-20T05:58:38;7.90;99.90
25688;DHT22;17407;51.120;3.702;2023-12-20T06:01:04;7.90;99.90
25688;DHT22;17407;51.120;3.702;2023-12-20T06:03:30;7.90;99.90
25688;DHT22;17407;51.120;3.702;2023-12-20T06:05:56;8.00;99.90
25688;DHT22;17407;51.120;3.702;2023-12-20T06:08:22;8.00;99.90
25688;DHT22;17407;51.120;3.702;2023-12-20T06:10:48;7.90;99.90
25688;DHT22;17407;51.120;3.702;2023-12-20T06:13:14;8.00;99.90
25688;DHT22;17407;51.120;3.702;2023-12-20T06:15:40;7.90;99.90
25688;DHT22;17407;51.120;3.702;2023-12-20T06:18:06;7.90;99.90
25688;DHT22;17407;51.120;3.702;2023-12-20T06:20:33;7.90;99.90
25688;DHT22;17407;51.120;3.702;2023-12-20T06:22:58;7.90;99.90
25688;DHT22;17407;51.120;3.702;2023-12-20T06:25:24;7.80;99.90
25688;DHT22;17407;51.120;3.702;2023-12-20T06:27:50;7.90;99.90
25688;DHT22;17407;51.120;3.702;2023-12-20T06:30:16;7.90;99.90
25688;DHT22;17407;51.120;3.702;2023-12-20T06:32:42;7.90;99.90
25688;DHT22;17407;51.120;3.702;2023-12-20T06:35:08;7.80;99.90
25688;DHT22;17407;51.120;3.702;2023-12-20T06:37:34;7.90;99.90
25688;DHT22;17407;51.120;3.702;2023-12-20T06:40:00;7.90;99.90
25688;DHT22;17407;51.120;3.702;2023-12-20T06:42:26;7.90;99.90
25688;DHT22;17407;51.120;3.702;2023-12-20T06:44:52;7.90;99.90
25688;DHT22;17407;51.120;3.702;2023-12-20T06:47:18;7.90;99.90
25688;DHT22;17407;51.120;3.702;2023-12-20T06:49:44;7.90;99.90
25688;DHT22;17407;51.120;3.702;2023-12-20T06:52:09;7.80;99.90
25688;DHT22;17407;51.120;3.702;2023-12-20T06:54:35;7.80;99.90
25688;DHT22;17407;51.120;3.702;2023-12-20T06:57:01;7.80;99.90
25688;DHT22;17407;51.120;3.702;2023-12-20T06:59:28;7.80;99.90
25688;DHT22;17407;51.120;3.702;2023-12-20T07:01:54;7.80;99.90
25688;DHT22;17407;51.120;3.702;2023-12-20T07:04:20;7.70;99.90
25688;DHT22;17407;51.120;3.702;2023-12-20T07:06:47;7.80;99.90
25688;DHT22;17407;51.120;3.702;2023-12-20T07:09:14;7.70;99.90
25688;DHT22;17407;51.120;3.702;2023-12-20T07:11:39;7.60;99.90
25688;DHT22;17407;51.120;3.702;2023-12-20T07:14:05;7.60;99.90
25688;DHT22;17407;51.120;3.702;2023-12-20T07:16:31;7.60;99.90
25688;DHT22;17407;51.120;3.702;2023-12-20T07:18:57;7.60;99.90
25688;DHT22;17407;51.120;3.702;2023-12-20T07:21:23;7.50;99.90
25688;DHT22;17407;51.120;3.702;2023-12-20T07:23:48;7.50;99.90
25688;DHT22;17407;51.120;3.702;2023-12-20T07:26:14;7.50;99.90
25688;DHT22;17407;51.120;3.702;2023-12-20T07:28:40;7.50;99.90
25688;DHT22;17407;51.120;3.702;2023-12-20T07:31:06;7.50;99.90
25688;DHT22;17407;51.120;3.702;2023-12-20T07:33:32;7.40;99.90
25688;DHT22;17407;51.120;3.702;2023-12-20T07:35:59;7.40;99.90
25688;DHT22;17407;51.120;3.702;2023-12-20T07:38:26;7.50;99.90
25688;DHT22;17407;51.120;3.702;2023-12-20T07:40:51;7.50;99.90
25688;DHT22;17407;51.120;3.702;2023-12-20T07:43:17;7.40;99.90
25688;DHT22;17407;51.120;3.702;2023-12-20T07:45:43;7.40;99.90
25688;DHT22;17407;51.120;3.702;2023-12-20T07:48:08;7.40;99.90
25688;DHT22;17407;51.120;3.702;2023-12-20T07:50:34;7.40;99.90
25688;DHT22;17407;51.120;3.702;2023-12-20T07:53:00;7.40;99.90
25688;DHT22;17407;51.120;3.702;2023-12-20T07:55:26;7.40;99.90
25688;DHT22;17407;51.120;3.702;2023-12-20T07:57:52;7.30;99.90
25688;DHT22;17407;51.120;3.702;2023-12-20T08:00:18;7.30;99.90
25688;DHT22;17407;51.120;3.702;2023-12-20T08:02:44;7.30;99.90
25688;DHT22;17407;51.120;3.702;2023-12-20T08:05:09;7.20;99.90
25688;DHT22;17407;51.120;3.702;2023-12-20T08:07:35;7.20;99.90
25688;DHT22;17407;51.120;3.702;2023-12-20T08:10:01;7.20;99.90
25688;DHT22;17407;51.120;3.702;2023-12-20T08:12:27;7.20;99.90
25688;DHT22;17407;51.120;3.702;2023-12-20T08:14:53;7.30;99.90
25688;DHT22;17407;51.120;3.702;2023-12-20T08:17:19;7.20;99.90
25688;DHT22;17407;51.120;3.702;2023-12-20T08:19:45;7.30;99.90
25688;DHT22;17407;51.120;3.702;2023-12-20T08:22:11;7.30;99.90
25688;DHT22;17407;51.120;3.702;2023-12-20T08:24:37;7.30;99.90
25688;DHT22;17407;51.120;3.702;2023-12-20T08:27:04;7.30;99.90
25688;DHT22;17407;51.120;3.702;2023-12-20T08:29:30;7.30;99.90
25688;DHT22;17407;51.120;3.702;2023-12-20T08:31:55;7.30;99.90
25688;DHT22;17407;51.120;3.702;2023-12-20T08:34:21;7.30;99.90
25688;DHT22;17407;51.120;3.702;2023-12-20T08:36:47;7.30;99.90
25688;DHT22;17407;51.120;3.702;2023-12-20T08:39:12;7.30;99.90
25688;DHT22;17407;51.120;3.702;2023-12-20T08:41:38;7.30;99.90
25688;DHT22;17407;51.120;3.702;2023-12-20T08:44:04;7.30;99.90
25688;DHT22;17407;51.120;3.702;2023-12-20T08:46:29;7.30;99.90
25688;DHT22;17407;51.120;3.702;2023-12-20T08:48:55;7.40;99.90
25688;DHT22;17407;51.120;3.702;2023-12-20T08:51:21;7.40;99.90
25688;DHT22;17407;51.120;3.702;2023-12-20T08:53:49;7.40;99.90
25688;DHT22;17407;51.120;3.702;2023-12-20T08:56:15;7.50;99.90
25688;DHT22;17407;51.120;3.702;2023-12-20T08:58:40;7.40;99.90
25688;DHT22;17407;51.120;3.702;2023-12-20T09:01:07;7.50;99.90
25688;DHT22;17407;51.120;3.702;2023-12-20T09:03:33;7.50;99.90
25688;DHT22;17407;51.120;3.702;2023-12-20T09:05:58;7.60;99.90
25688;DHT22;17407;51.120;3.702;2023-12-20T09:08:24;7.60;99.90
25688;DHT22;17407;51.120;3.702;2023-12-20T09:10:50;7.60;99.90
25688;DHT22;17407;51.120;3.702;2023-12-20T09:13:15;7.70;99.90
25688;DHT22;17407;51.120;3.702;2023-12-20T09:15:41;7.80;99.90
25688;DHT22;17407;51.120;3.702;2023-12-20T09:18:07;7.80;99.90
25688;DHT22;17407;51.120;3.702;2023-12-20T09:20:33;7.80;99.90
25688;DHT22;17407;51.120;3.702;2023-12-20T09:22:58;7.90;99.90
25688;DHT22;17407;51.120;3.702;2023-12-20T09:25:24;7.90;99.90
25688;DHT22;17407;51.120;3.702;2023-12-20T09:27:54;7.90;99.90
25688;DHT22;17407;51.120;3.702;2023-12-20T09:30:20;8.10;99.90
25688;DHT22;17407;51.120;3.702;2023-12-20T09:32:45;8.20;99.90
25688;DHT22;17407;51.120;3.702;2023-12-20T09:35:11;8.20;99.90
25688;DHT22;17407;51.120;3.702;2023-12-20T09:37:37;8.30;99.90
25688;DHT22;17407;51.120;3.702;2023-12-20T09:40:03;8.40;99.90
25688;DHT22;17407;51.120;3.702;2023-12-20T09:42:36;8.40;99.90
25688;DHT22;17407;51.120;3.702;2023-12-20T09:45:04;8.50;99.90
25688;DHT22;17407;51.120;3.702;2023-12-20T09:47:33;8.50;99.90
25688;DHT22;17407;51.120;3.702;2023-12-20T09:49:59;8.50;99.90
25688;DHT22;17407;51.120;3.702;2023-12-20T09:52:25;8.60;99.90
25688;DHT22;17407;51.120;3.702;2023-12-20T09:54:52;8.60;99.90
25688;DHT22;17407;51.120;3.702;2023-12-20T09:57:18;8.60;99.90
25688;DHT22;17407;51.120;3.702;2023-12-20T09:59:44;8.70;99.90
25688;DHT22;17407;51.120;3.702;2023-12-20T10:02:13;8.70;99.90
25688;DHT22;17407;51.120;3.702;2023-12-20T10:04:46;8.70;99.90
25688;DHT22;17407;51.120;3.702;2023-12-20T10:07:13;8.70;99.90
25688;DHT22;17407;51.120;3.702;2023-12-20T10:09:39;8.70;99.90
25688;DHT22;17407;51.120;3.702;2023-12-20T10:12:05;8.70;99.90
25688;DHT22;17407;51.120;3.702;2023-12-20T10:14:32;8.60;99.90
25688;DHT22;17407;51.120;3.702;2023-12-20T10:17:04;8.60;99.90
25688;DHT22;17407;51.120;3.702;2023-12-20T10:19:31;8.70;99.90
25688;DHT22;17407;51.120;3.702;2023-12-20T10:21:59;8.70;99.90
25688;DHT22;17407;51.120;3.702;2023-12-20T10:24:25;8.70;99.90
25688;DHT22;17407;51.120;3.702;2023-12-20T10:27:03;8.70;99.90
25688;DHT22;17407;51.120;3.702;2023-12-20T10:29:37;8.80;99.90
25688;DHT22;17407;51.120;3.702;2023-12-20T10:32:26;8.70;99.90
25688;DHT22;17407;51.120;3.702;2023-12-20T10:34:54;8.80;99.90
25688;DHT22;17407;51.120;3.702;2023-12-20T10:37:20;8.80;99.90
25688;DHT22;17407;51.120;3.702;2023-12-20T10:39:51;8.80;99.90
25688;DHT22;17407;51.120;3.702;2023-12-20T10:42:27;8.90;99.90
25688;DHT22;17407;51.120;3.702;2023-12-20T10:44:53;8.90;99.90
25688;DHT22;17407;51.120;3.702;2023-12-20T10:47:20;8.90;99.90
25688;DHT22;17407;51.120;3.702;2023-12-20T10:49:46;8.90;99.90
25688;DHT22;17407;51.120;3.702;2023-12-20T10:52:13;8.90;99.90
25688;DHT22;17407;51.120;3.702;2023-12-20T10:54:41;8.90;99.90
25688;DHT22;17407;51.120;3.702;2023-12-20T10:57:07;9.00;99.90
25688;DHT22;17407;51.120;3.702;2023-12-20T10:59:35;9.00;99.90
25688;DHT22;17407;51.120;3.702;2023-12-20T11:02:03;9.00;99.90
25688;DHT22;17407;51.120;3.702;2023-12-20T11:07:22;9.10;99.90
25688;DHT22;17407;51.120;3.702;2023-12-20T11:09:59;9.00;99.90
25688;DHT22;17407;51.120;3.702;2023-12-20T11:12:41;9.00;99.90
25688;DHT22;17407;51.120;3.702;2023-12-20T11:15:09;9.00;99.90
25688;DHT22;17407;51.120;3.702;2023-12-20T11:17:39;9.00;99.90
25688;DHT22;17407;51.120;3.702;2023-12-20T11:20:05;9.10;99.90
25688;DHT22;17407;51.120;3.702;2023-12-20T11:22:32;9.20;99.90
25688;DHT22;17407;51.120;3.702;2023-12-20T11:25:06;9.20;99.90
25688;DHT22;17407;51.120;3.702;2023-12-20T11:27:34;9.20;99.90
25688;DHT22;17407;51.120;3.702;2023-12-20T11:29:59;9.20;99.90
25688;DHT22;17407;51.120;3.702;2023-12-20T11:32:28;9.30;99.90
25688;DHT22;17407;51.120;3.702;2023-12-20T11:37:40;9.30;99.90
25688;DHT22;17407;51.120;3.702;2023-12-20T11:40:16;9.30;99.90
25688;DHT22;17407;51.120;3.702;2023-12-20T11:42:48;9.30;99.90
25688;DHT22;17407;51.120;3.702;2023-12-20T11:45:15;9.40;99.90
25688;DHT22;17407;51.120;3.702;2023-12-20T11:47:51;9.40;99.90
25688;DHT22;17407;51.120;3.702;2023-12-20T11:50:20;9.50;99.90
25688;DHT22;17407;51.120;3.702;2023-12-20T11:52:46;9.50;99.90
25688;DHT22;17407;51.120;3.702;2023-12-20T11:55:12;9.60;99.90
25688;DHT22;17407;51.120;3.702;2023-12-20T11:57:38;9.50;99.90
25688;DHT22;17407;51.120;3.702;2023-12-20T12:00:04;9.50;99.90
25688;DHT22;17407;51.120;3.702;2023-12-20T12:02:31;9.60;99.90
25688;DHT22;17407;51.120;3.702;2023-12-20T12:04:58;9.60;99.90
25688;DHT22;17407;51.120;3.702;2023-12-20T12:07:24;9.50;99.90
25688;DHT22;17407;51.120;3.702;2023-12-20T12:09:50;9.60;99.90
25688;DHT22;17407;51.120;3.702;2023-12-20T12:12:17;9.60;99.90
25688;DHT22;17407;51.120;3.702;2023-12-20T12:14:45;9.60;99.90
25688;DHT22;17407;51.120;3.702;2023-12-20T12:17:14;9.60;99.90
25688;DHT22;17407;51.120;3.702;2023-12-20T12:19:43;9.70;99.90
25688;DHT22;17407;51.120;3.702;2023-12-20T12:22:10;9.70;99.90
25688;DHT22;17407;51.120;3.702;2023-12-20T12:24:40;9.70;99.90
25688;DHT22;17407;51.120;3.702;2023-12-20T12:27:09;9.60;99.90
25688;DHT22;17407;51.120;3.702;2023-12-20T12:29:35;9.70;99.90
25688;DHT22;17407;51.120;3.702;2023-12-20T12:32:04;9.60;99.90
25688;DHT22;17407;51.120;3.702;2023-12-20T12:34:30;9.70;99.90
25688;DHT22;17407;51.120;3.702;2023-12-20T12:36:57;9.70;99.90
25688;DHT22;17407;51.120;3.702;2023-12-20T12:39:24;9.70;99.90
25688;DHT22;17407;51.120;3.702;2023-12-20T12:41:51;9.70;99.90
25688;DHT22;17407;51.120;3.702;2023-12-20T12:44:17;9.80;99.90
25688;DHT22;17407;51.120;3.702;2023-12-20T12:46:44;9.80;99.90
25688;DHT22;17407;51.120;3.702;2023-12-20T12:49:10;9.90;99.90
25688;DHT22;17407;51.120;3.702;2023-12-20T12:51:35;9.90;99.90
25688;DHT22;17407;51.120;3.702;2023-12-20T12:54:01;9.90;99.90
25688;DHT22;17407;51.120;3.702;2023-12-20T12:56:27;9.90;99.90
25688;DHT22;17407;51.120;3.702;2023-12-20T12:58:53;10.00;99.90
25688;DHT22;17407;51.120;3.702;2023-12-20T13:01:19;10.00;99.90
25688;DHT22;17407;51.120;3.702;2023-12-20T13:03:44;10.00;99.90
25688;DHT22;17407;51.120;3.702;2023-12-20T13:06:10;10.00;99.90
25688;DHT22;17407;51.120;3.702;2023-12-20T13:08:35;10.00;99.90
25688;DHT22;17407;51.120;3.702;2023-12-20T13:11:01;10.00;99.90
25688;DHT22;17407;51.120;3.702;2023-12-20T13:13:30;10.10;99.90
25688;DHT22;17407;51.120;3.702;2023-12-20T13:15:56;10.10;99.90
25688;DHT22;17407;51.120;3.702;2023-12-20T13:18:22;10.10;99.90
25688;DHT22;17407;51.120;3.702;2023-12-20T13:20:48;10.20;99.90
25688;DHT22;17407;51.120;3.702;2023-12-20T13:23:14;10.20;99.90
25688;DHT22;17407;51.120;3.702;2023-12-20T13:25:41;10.20;99.90
25688;DHT22;17407;51.120;3.702;2023-12-20T13:28:06;10.10;99.90
25688;DHT22;17407;51.120;3.702;2023-12-20T13:30:34;10.30;99.90
25688;DHT22;17407;51.120;3.702;2023-12-20T13:32:59;10.30;99.90
25688;DHT22;17407;51.120;3.702;2023-12-20T13:35:25;10.30;99.90
25688;DHT22;17407;51.120;3.702;2023-12-20T13:37:51;10.30;99.90
25688;DHT22;17407;51.120;3.702;2023-12-20T13:40:17;10.30;99.90
25688;DHT22;17407;51.120;3.702;2023-12-20T13:42:43;10.30;99.90
25688;DHT22;17407;51.120;3.702;2023-12-20T13:45:09;10.40;99.90
25688;DHT22;17407;51.120;3.702;2023-12-20T13:47:35;10.40;99.90
25688;DHT22;17407;51.120;3.702;2023-12-20T13:50:03;10.40;99.90
25688;DHT22;17407;51.120;3.702;2023-12-20T13:52:29;10.40;99.90
25688;DHT22;17407;51.120;3.702;2023-12-20T13:54:55;10.40;99.90
25688;DHT22;17407;51.120;3.702;2023-12-20T13:57:20;10.30;99.90
25688;DHT22;17407;51.120;3.702;2023-12-20T13:59:46;10.40;99.90
25688;DHT22;17407;51.120;3.702;2023-12-20T14:02:12;10.40;99.90
25688;DHT22;17407;51.120;3.702;2023-12-20T14:04:37;10.30;99.90
25688;DHT22;17407;51.120;3.702;2023-12-20T14:07:04;10.40;99.90
25688;DHT22;17407;51.120;3.702;2023-12-20T14:09:30;10.40;99.90
25688;DHT22;17407;51.120;3.702;2023-12-20T14:11:56;10.40;99.90
25688;DHT22;17407;51.120;3.702;2023-12-20T14:14:21;10.40;99.90
25688;DHT22;17407;51.120;3.702;2023-12-20T14:16:47;10.40;99.90
25688;DHT22;17407;51.120;3.702;2023-12-20T14:19:13;10.50;99.90
25688;DHT22;17407;51.120;3.702;2023-12-20T14:21:38;10.50;99.90
25688;DHT22;17407;51.120;3.702;2023-12-20T14:24:04;10.40;99.90
25688;DHT22;17407;51.120;3.702;2023-12-20T14:26:30;10.40;99.90
25688;DHT22;17407;51.120;3.702;2023-12-20T14:28:57;10.50;99.90
25688;DHT22;17407;51.120;3.702;2023-12-20T14:31:23;10.50;99.90
25688;DHT22;17407;51.120;3.702;2023-12-20T14:33:50;10.40;99.90
25688;DHT22;17407;51.120;3.702;2023-12-20T14:36:19;10.40;99.90
25688;DHT22;17407;51.120;3.702;2023-12-20T14:38:45;10.40;99.90
25688;DHT22;17407;51.120;3.702;2023-12-20T14:41:12;10.50;99.90
25688;DHT22;17407;51.120;3.702;2023-12-20T14:43:38;10.50;99.90
25688;DHT22;17407;51.120;3.702;2023-12-20T14:46:03;10.50;99.90
25688;DHT22;17407;51.120;3.702;2023-12-20T14:48:31;10.50;99.90
25688;DHT22;17407;51.120;3.702;2023-12-20T14:50:57;10.40;99.90
25688;DHT22;17407;51.120;3.702;2023-12-20T14:53:24;10.50;99.90
25688;DHT22;17407;51.120;3.702;2023-12-20T14:55:50;10.50;99.90
25688;DHT22;17407;51.120;3.702;2023-12-20T14:58:16;10.50;99.90
25688;DHT22;17407;51.120;3.702;2023-12-20T15:00:42;10.50;99.90
25688;DHT22;17407;51.120;3.702;2023-12-20T15:03:09;10.50;99.90
25688;DHT22;17407;51.120;3.702;2023-12-20T15:05:35;10.50;99.90
25688;DHT22;17407;51.120;3.702;2023-12-20T15:08:01;10.50;99.90
25688;DHT22;17407;51.120;3.702;2023-12-20T15:10:27;10.40;99.90
25688;DHT22;17407;51.120;3.702;2023-12-20T15:12:53;10.40;99.90
25688;DHT22;17407;51.120;3.702;2023-12-20T15:15:19;10.40;99.90
25688;DHT22;17407;51.120;3.702;2023-12-20T15:17:45;10.50;99.90
25688;DHT22;17407;51.120;3.702;2023-12-20T15:20:11;10.40;99.90
25688;DHT22;17407;51.120;3.702;2023-12-20T15:22:37;10.40;99.90
25688;DHT22;17407;51.120;3.702;2023-12-20T15:25:03;10.50;99.90
25688;DHT22;17407;51.120;3.702;2023-12-20T15:27:31;10.50;99.90
25688;DHT22;17407;51.120;3.702;2023-12-20T15:29:58;10.50;99.90
25688;DHT22;17407;51.120;3.702;2023-12-20T15:32:24;10.50;99.90
25688;DHT22;17407;51.120;3.702;2023-12-20T15:34:50;10.50;99.90
25688;DHT22;17407;51.120;3.702;2023-12-20T15:37:17;10.50;99.90
25688;DHT22;17407;51.120;3.702;2023-12-20T15:39:43;10.50;99.90
25688;DHT22;17407;51.120;3.702;2023-12-20T15:42:08;10.40;99.90